OEMA/MED METAR and TAF weather

Enter ICAO airport designator
Station Type Date Time Source
OEMA METAR 2022/12/04 05:00 UTC NOAA

OEMA 040500Z 00000KT CAVOK 20/13 Q1018 NOSIG


Station Type Date Time Source
OEMA Decoded METAR 2022/12/04 05:00 UTC NOAA

Madinah, Saudi Arabia (OEMA) 24-33N 039-42E 636M
Dec 04, 2022 - 12:00 AM EST / 2022.12.04 0500 UTC
Wind: Calm:0
Visibility: greater than 7 mile(s):0
Temperature: 68 F (20 C)
Dew Point: 55 F (13 C)
Relative Humidity: 64%
Pressure (altimeter): 30.06 in. Hg (1018 hPa)
ob: OEMA 040500Z 00000KT CAVOK 20/13 Q1018 NOSIG
cycle: 5

Station Type Date Time Source
OEMA TAF 2022/12/03 18:33 UTC NOAA

TAF OEMA 031700Z 0318/0424 27006KT 9999 FEW045
BECMG 0400/0402 16008KT
BECMG 0406/0408 26010KT

Example: see airport list